Terminal Aerodrome Forecast
Issued by NWS

Home | Current Version | Previous Version | Text Only | Print | Product List | Glossary On
Versions: 1 2 3 4 5 6 7 8 9 10 11 12 13 14 15 16 17 18 19 20 21 22 23 24 25 26 27 28 29 30 31
000
FTUS43 KSGF 190923 AAA
TAFJLN
TAF AMD
KJLN 190923Z 1909/2006 19023G32KT P6SM OVC010 WS020/21055KT
     FM191200 19024G33KT P6SM SHRA OVC010 WS020/21055KT
     FM191800 19023G32KT P6SM -SHRA OVC015
     FM200100 19017G26KT P6SM -SHRA OVC015 WS020/20050KT=

USA.gov is the U.S. government's official web portal to all federal, state and local government web resources and services.